Weather observations for the past three days for
Emporia, Emporia-Greensville Regional Airport
Metric (Imperial)
Date Time (edt) Wind (kph) Vis. (km) Weather Sky Cond. Temperature (ºC) Relative Humidity Wind Chill (°C) Heat Index (°C) Pressure Precipitation (cm)
Air Dwpt 6 hour altimeter (cm) sea level (mb) 1 hr 3 hr 6 hr
Max. Min.
09 10:15 S 15 16.09 Fair CLR 19.5 11.9 62% 76.07 0.0
09 09:55 S 11 16.09 Fair CLR 18.4 12.2 67% 76.07 0.0
09 09:35 Calm 16.09 Fair CLR 17.1 12.6 75% 76.07 0.0
09 09:15 S 7 16.09 Fair CLR 15.6 12.5 82% 76.1 0.0
09 08:55 Calm 16.09 Fair CLR 14.5 12.3 87% 76.1 0.0
09 08:35 SE 6 16.09 Fair CLR 13.6 11.7 88% 76.1 0.0
09 08:15 S 6 16.09 Fair CLR 12.8 11.2 90% 76.12 0.0
09 07:55 Calm 16.09 Fair CLR 12.2 10.9 12.2 5.3 92% 76.1 0.0
09 07:35 Calm 16.09 Fair CLR 11.4 10.6 95% 76.07 0.0
09 07:15 Calm 11.27 Fair CLR 10.1 10.1 100% 76.07 0.0
09 06:55 Calm 11.27 Fair CLR 8.7 8.7 100% 76.07 0.0
09 06:35 Calm 16.09 Fair CLR 7.4 7.4 100% 76.07 0.0
09 06:15 Calm 0.24 Fog VV000 5.6 5.6 100% 76.07 0.0
09 05:55 Calm 2.41 Fog/Mist VV007 5.7 5.7 100% 76.07 0.0
09 05:35 Calm 8.05 Fog/Mist CLR 6.4 6.3 99% 76.07 0.0
09 05:15 Calm 4.83 Fog/Mist CLR 7.2 7.2 100% 76.1 0.0
09 04:55 Calm 16.09 Fair CLR 8 7.7 98% 76.1 0.0
09 04:35 SE 6 16.09 Fair CLR 8.7 8.4 98% 76.1 0.0
09 04:15 SE 6 16.09 Fair CLR 8.3 8 98% 76.1 0.0
09 03:55 Calm 16.09 Fair CLR 8.8 8.1 95% 76.1 0.0
09 03:35 Calm 16.09 Fair CLR 9.1 8.2 94% 76.12 0.0
09 03:15 SE 6 16.09 Fair CLR 9.2 8.3 94% 76.12 0.0
09 02:55 Calm 16.09 Fair CLR 9.4 8.1 92% 76.12 0.0
09 02:35 Calm 16.09 Fair CLR 10.5 8.7 89% 76.12 0.0
09 02:15 SE 7 16.09 Fair CLR 11.2 9.2 88% 76.15 0.0
09 01:55 SE 7 16.09 Fair CLR 11.8 9.1 17.7 9.7 84% 76.17 0.0
09 01:35 Calm 16.09 Fair CLR 12.8 9.4 80% 76.17 0.0
09 01:15 S 7 16.09 Fair CLR 13 9.5 79% 76.17 0.0
09 00:55 S 6 16.09 Fair CLR 13.1 9.5 79% 76.17 0.0
09 00:35 SE 7 16.09 Fair CLR 13.4 9.5 77% 76.17 0.0
09 00:15 SE 9 16.09 Fair CLR 13.2 9.3 77% 76.17 0.0
08 23:55 SE 9 16.09 Fair CLR 12.6 8.8 78% 76.17 0.0
08 23:35 SE 9 16.09 Fair CLR 13.2 8.5 73% 76.2 0.0
08 23:15 SE 9 16.09 Fair CLR 10.7 8.5 86% 76.2 0.0
08 22:55 Calm 16.09 Fair CLR 10.6 8 84% 76.23 0.0
08 22:35 Calm 16.09 Fair CLR 9.7 7.8 88% 76.23 0.0
08 22:15 Calm 16.09 Fair CLR 9.7 8 89% 76.23 0.0
08 21:55 Calm 16.09 Fair CLR 11.8 8 78% 76.23 0.0
08 21:35 SE 6 16.09 Fair CLR 10.5 7.6 82% 76.2 0.0
08 21:15 Calm 16.09 Fair CLR 10.7 7.8 82% 76.17 0.0
08 20:55 Calm 16.09 Fair CLR 12.2 8.2 77% 76.17 0.0
08 20:35 Calm 16.09 Fair CLR 12.5 7.8 73% 76.15 0.0
08 20:15 Calm 16.09 Fair CLR 16.7 7.3 54% 76.17 0.0
08 19:55 S 6 16.09 Fair CLR 18.1 5.3 21.6 18.1 43% 76.15 0.0
08 19:35 S 6 16.09 Fair CLR 19 5.1 40% 76.12 0.0
08 19:15 S 6 16.09 Fair CLR 19.7 4.8 38% 76.12 0.0
08 18:55 SE 7 16.09 Fair CLR 20.3 4.3 35% 76.1 0.0
08 18:35 S 7 16.09 Fair CLR 20.4 3.8 34% 76.1 0.0
08 18:15 S 11 16.09 Fair CLR 20.9 4 33% 76.1 0.0
08 17:55 S 9 16.09 Fair CLR 21.1 3.7 32% 76.12 0.0
08 17:35 SW 11 16.09 Fair CLR 21.3 3.8 32% 76.12 0.0
08 17:15 S 15 16.09 Fair CLR 21.4 3.4 31% 76.12 0.0
08 16:55 SW 13 16.09 Fair CLR 21.1 2.4 29% 76.12 0.0
08 16:35 S 11 16.09 Fair CLR 21.2 2.7 30% 76.15 0.0
08 16:15 S 6 16.09 Fair CLR 20.9 1.7 28% 76.15 0.0
08 15:55 S 17 16.09 Fair CLR 21 2.1 29% 76.15 0.0
08 15:35 S 15 16.09 Fair CLR 20.7 2.8 31% 76.17 0.0
08 15:15 S 9 16.09 Fair CLR 20.5 3 32% 76.17 0.0
08 14:55 SE 13 16.09 Fair CLR 20.7 3.1 31% 76.23 0.0
08 14:35 S 9 16.09 Fair CLR 19.7 2.6 32% 76.25 0.0
08 14:15 SW 6 16.09 Fair CLR 20 3.2 33% 76.25 0.0
08 13:55 Calm 16.09 Fair CLR 19.1 2.2 20 9.1 33% 76.28 0.0
08 13:35 SE 11 16.09 Fair CLR 19.2 2.7 34% 76.28 0.0
08 13:15 Calm 16.09 Fair CLR 18.6 2 33% 76.33 0.0
08 12:55 W 6 16.09 Fair CLR 18.8 3.1 35% 76.33 0.0
08 12:35 NE 6 16.09 Fair CLR 18.3 3.4 37% 76.35 0.0
08 12:15 E 6 16.09 Fair CLR 18.4 4 39% 76.38 0.0
08 11:55 Calm 16.09 Fair CLR 17.5 3.5 40% 76.38 0.0
08 11:35 N 7 16.09 Fair CLR 17.2 4.1 42% 76.4 0.0
08 11:15 NW 9 16.09 Fair CLR 16.8 5.2 47% 76.4 0.0
08 10:55 W 6 16.09 Fair CLR 16.3 5.2 48% 76.4 0.0
08 10:35 N 9 16.09 Fair CLR 16 5.8 51% 76.38 0.0
08 10:15 NW 7 16.09 Fair CLR 15.2 6.8 58% 76.38 0.0
08 09:55 N 9 16.09 Fair CLR 14.6 6.6 59% 76.38 0.0
08 09:35 N 7 16.09 Fair CLR 13.8 6.7 63% 76.38 0.0
08 09:15 N 9 16.09 Fair CLR 11.8 9.1 84% 76.38 0.0
08 08:55 NW 9 16.09 Fair CLR 11 9.6 91% 76.35 0.0
08 08:35 NW 9 16.09 Fair CLR 10.4 9.6 95% 76.33 0.0
08 08:15 NW 7 16.09 Fair CLR 9.5 9.2 98% 9 76.33 0.0
08 07:55 NW 7 16.09 Fair CLR 9 9 9 3.3 100% 8 76.3 0.0
08 07:35 NW 6 16.09 Fair CLR 8.1 8.1 100% 76.3 0.0
08 07:15 Calm 11.27 Fair CLR 7 7 100% 76.28 0.0
08 06:55 Calm 4.83 Fog/Mist SCT002 5.2 5.2 100% 76.25 0.0
08 06:35 Calm 0.40 Fog OVC002 4.4 4.4 100% 76.23 0.0
08 06:15 Calm 0.24 Fog OVC002 5 5 100% 76.2 0.0
08 05:55 Calm 0.80 Fog OVC002 3.7 3.7 100% 76.17 0.0
08 05:35 Calm 0.40 Fog OVC004 4.7 4.7 100% 76.17 0.0
08 05:15 Calm 0.80 Fog BKN004 BKN070 3.3 3.3 100% 76.15 0.0
08 04:55 Calm 0.40 Fog BKN004 4.4 4.4 100% 76.12 0.0
08 04:35 Calm 0.80 Fog BKN003 5.2 5.2 100% 76.12 0.0
08 04:15 Calm 0.80 Fog BKN003 6 6 100% 76.1 0.0
08 03:55 Calm 0.40 Fog VV002 6.4 6.4 100% 76.07 0.0
08 03:35 Calm 11.27 Fair CLR 7.8 7.8 100% 76.07 0.0
08 03:15 W 7 11.27 Partly Cloudy SCT021 8.1 8.1 100% 7 76.07 0.0
08 02:55 W 11 11.27 Partly Cloudy SCT023 8.1 8.1 100% 6 76.07 0.0
08 02:35 W 6 8.05 Fog/Mist BKN023 8 8 100% 76.07 0.0
08 02:15 Calm 8.05 Fog/Mist BKN027 8 8 100% 76.07 0.0
08 01:55 Calm 4.83 Fog/Mist OVC027 7.7 7.7 10.8 6.5 100% 76.07 0.0
08 01:35 Calm 11.27 Overcast BKN027 OVC050 8 8 100% 76.07 0.0
08 01:15 Calm 6.44 Fog/Mist SCT029 BKN050 BKN060 7.4 7.4 100% 76.05 0.0
08 00:55 Calm 0.80 Fog SCT033 BKN050 BKN065 6.6 6.6 100% 76.05 0.0
08 00:35 Calm 1.21 Fog/Mist BKN002 BKN033 6.8 6.8 100% 76.05 0.0
08 00:15 Calm 0.40 Fog VV002 7.1 7.1 100% 76.02 0.0
07 23:55 Calm 2.01 Fog/Mist VV007 8.5 8.5 100% 76.02 0.0
07 23:35 Calm 4.83 Fog/Mist SCT110 8.7 8.7 100% 76.02 0.0
07 23:15 Calm 11.27 Overcast OVC100 8.9 8.9 100% 76.02 0.0
07 22:55 W 6 11.27 Mostly Cloudy BKN100 9 9 100% 76 0.0
07 22:35 Calm 6.44 Fog/Mist SCT100 8.8 8.6 99% 75.97 0.0
07 22:15 Calm 16.09 Mostly Cloudy SCT085 BKN110 9.9 9.4 97% 75.97 0.0
07 21:55 Calm 16.09 Overcast OVC085 10.3 9.6 95% 75.97 0.0
07 21:35 W 6 16.09 Overcast OVC085 10.5 9.8 95% 75.97 0.0
07 21:15 W 6 16.09 Overcast BKN075 OVC095 10.5 10 97% 75.95 0.0
07 20:55 W 6 16.09 Overcast SCT065 OVC095 10.5 9.9 96% 75.92 0.0
07 20:35 Calm 16.09 Overcast OVC065 10.8 9.8 94% 75.9 0.0
07 20:15 Calm 16.09 Overcast OVC055 10.8 9.6 92% 75.9 0.0
07 19:55 W 6 16.09 Overcast OVC055 10.8 9.2 12.3 10.7 90% 75.9 0.0 0.08
07 19:35 N 6 16.09 Overcast OVC055 10.9 9.2 89% 75.84 0.0
07 19:15 NE 7 16.09 Overcast SCT008 OVC055 11 9 88% 75.84 0.0
07 18:55 N 7 16.09 Overcast BKN008 OVC012 11.1 10 93% 75.84 0.0
07 18:35 Calm 16.09 Overcast SCT012 OVC048 11.2 9.9 92% 75.82 0.0
07 18:15 N 7 16.09 Light Rain SCT010 SCT015 OVC046 11.2 9.7 91% 75.84 0.0
07 17:55 NE 7 16.09 Light Rain OVC037 11.3 9.7 90% 75.84 0.0 0.05
07 17:35 N 7 16.09 Light Rain OVC035 11.4 9.5 88% 75.87 0.0 0.05
07 17:15 N 11 11.27 Light Rain OVC033 11.5 10.2 92% 75.82 0.0 0.03
07 16:15 N 13 16.09 Overcast SCT022 OVC031 12 9.5 85% 75.79 0.0
07 15:55 N 15 16.09 Overcast SCT022 OVC031 12.2 9.2 82% 75.79 0.0
07 15:35 N 9 16.09 Overcast OVC031 12.2 9.5 84% 75.82 0.0
07 15:15 N 11 16.09 Overcast OVC031 12.1 9.8 86% 75.79 0.0
07 14:55 N 17 16.09 Overcast OVC031 11.7 9.3 85% 75.82 0.0
07 14:35 N 20 G 26 16.09 Overcast OVC031 12.1 9.6 85% 75.84 0.0
07 14:15 N 17 G 26 16.09 Overcast OVC031 12 9.9 87% 75.82 0.0
07 13:55 N 13 16.09 Overcast OVC029 11.8 10 18.3 11.5 89% 75.87 0.0 0.53
07 13:35 N 13 16.09 Overcast SCT024 OVC029 11.7 10.1 90% 75.79 0.0
07 13:15 N 15 16.09 Light Rain SCT008 SCT013 OVC023 11.5 9.6 88% 75.87 0.0
07 12:55 N 17 G 31 16.09 Light Rain BKN008 BKN013 OVC021 12.2 11.2 94% 75.84 0.0 0.08
07 12:35 N 15 16.09 Light Rain OVC006 13 12.5 97% 75.9 0.0 0.05
07 12:15 N 13 16.09 Light Rain OVC006 13.2 12.6 96% 75.87 0.0 0.03
07 11:55 N 15 11.27 Light Rain BKN008 OVC016 13.6 13 96% 75.84 0.0 0.2
07 11:35 N 15 11.27 Light Rain OVC006 13.5 13.1 97% 75.9 0.0 0.13
07 11:15 N 11 8.05 Rain OVC006 13.5 13.1 97% 75.87 0.0 0.08
07 10:55 N 7 8.05 Rain OVC006 13.5 13.1 97% 75.84 0.0 0.18 0.23
07 10:35 N 17 8.05 Light Rain OVC006 13.7 13.2 97% 75.84 0.0 0.05
07 10:15 N 17 16.09 Light Rain OVC006 14.1 13.5 96% 75.87 0.0
07 09:55 N 19 16.09 Overcast OVC006 14.1 13.6 97% 75.84 0.0 0.03
07 09:35 N 17 8.05 Light Rain OVC006 14.1 13.7 97% 75.82 0.0 0.03
07 09:15 N 15 6.44 Light Rain OVC006 14.2 13.7 97% 75.84 0.0
07 08:55 N 19 G 26 16.09 Light Rain BKN006 OVC011 14.5 14 97% 75.84 0.0 0.03
07 08:35 N 11 16.09 Light Rain SCT004 BKN023 OVC032 17.1 16.8 98% 75.82 0.0
07 08:15 Calm 11.27 Light Rain OVC030 18.2 18.2 100% 75.79 0.0
07 07:55 Calm 4.02 Light Rain SCT012 BKN023 OVC030 18.1 18.1 18.8 17.8 100% 75.82 0.0 0.13 0.43
07 07:35 Calm 6.44 Light Rain BKN010 BKN014 OVC019 18.1 18.1 100% 75.82 0.0 0.03
07 07:15 Calm 11.27 Light Rain OVC007 18 18 100% 75.82 0.0
07 06:55 Calm 11.27 Light Drizzle OVC007 18 18 100% 75.82 0.0 0.03
07 06:35 Calm 11.27 Light Rain BKN005 BKN011 OVC065 17.8 17.8 100% 75.79 0.0
07 06:15 Calm 16.09 Light Rain SCT031 SCT042 OVC065 18 17.8 99% 75.79 0.0
07 05:55 S 6 11.27 Light Rain SCT031 BKN065 OVC110 18 18 100% 75.79 0.0 0.23
07 05:35 S 6 11.27 Light Rain SCT033 SCT039 OVC055 18 17.7 98% 75.77 0.0 0.2
07 05:15 SW 7 8.05 Light Rain BKN033 BKN048 OVC055 18.1 17.8 98% 75.79 0.0 0.15
07 04:55 S 7 11.27 Light Rain SCT034 BKN040 OVC047 18.2 17.8 98% 75.77 0.0 0.03 0.05
07 04:35 S 9 16.09 Overcast BKN046 OVC060 18.3 17.7 96% 75.77 0.0
07 04:15 S 7 16.09 Overcast SCT046 OVC050 18.5 17.6 95% 75.77 0.0
07 03:55 S 15 16.09 Overcast BKN050 OVC075 18.5 17.8 96% 75.82 0.0
07 03:35 S 13 16.09 Light Rain SCT050 BKN060 OVC080 18.5 18 97% 75.79 0.0
07 03:15 Calm 16.09 Overcast OVC065 18.5 18 97% 75.84 0.0
07 02:55 S 6 16.09 Overcast OVC075 18.6 18.1 97% 75.84 0.0 0.03
07 02:35 Calm 16.09 Overcast BKN075 OVC100 18.7 18 96% 75.84 0.0 0.03
07 02:15 S 6 16.09 Partly Cloudy SCT085 SCT120 18.7 17.8 95% 75.84 0.0 0.03
07 01:55 S 11 16.09 Partly Cloudy SCT047 SCT095 SCT120 18.8 18 21.9 18.1 95% 75.82 0.0 0.08 0.1
07 01:35 SE 7 8.05 Light Rain SCT027 SCT046 BKN120 18.9 18 95% 75.82 0.0 0.08
07 01:15 S 7 11.27 Light Rain SCT037 SCT047 OVC110 19.2 17.8 92% 75.92 0.0 0.03
07 00:55 S 7 11.27 Light Rain SCT060 OVC110 18.8 17.6 93% 75.95 0.0 0.03
07 00:35 Calm 16.09 Light Rain BKN120 18.6 17.5 93% 75.92 0.0
07 00:15 Calm 16.09 Light Rain SCT120 18.6 17.2 92% 75.92 0.0
06 23:55 Calm 16.09 Light Rain SCT120 19.2 17.1 88% 75.9 0.0
06 23:35 Calm 16.09 Light Rain SCT090 SCT120 19.3 17 87% 75.87 0.0
06 23:15 Calm 16.09 Fair CLR 19.4 16.7 84% 75.87 0.0
06 22:55 Calm 16.09 Partly Cloudy SCT110 18.7 16.6 88% 75.9 0.0
06 22:35 SE 7 16.09 Fair CLR 18.6 16.6 88% 75.84 0.0
06 22:15 Calm 16.09 Fair CLR 18.9 16.5 86% 75.92 0.0
06 21:55 SW 6 16.09 Fair CLR 18.2 16.1 88% 75.95 0.0
06 21:35 SE 6 16.09 Fair CLR 18.3 16 87% 75.9 0.0
06 21:15 Calm 16.09 Fair CLR 18.9 16.4 86% 75.9 0.0
06 20:55 Calm 16.09 Fair CLR 20.7 16.3 76% 75.87 0.0
06 20:35 Calm 16.09 Fair CLR 20.9 16.3 75% 75.9 0.0
06 20:15 Calm 16.09 Fair CLR 21.3 16.2 73% 75.92 0.0
06 19:55 S 7 16.09 Fair CLR 22 16.2 24.6 20 70% 75.9 0.0 0.03
06 19:35 S 7 16.09 Fair CLR 22.5 16.2 68% 75.87 0.0
06 19:15 S 11 16.09 Fair CLR 22.7 16.2 67% 75.84 0.0
06 18:55 S 11 16.09 Fair CLR 23 16.1 65% 75.84 0.0
06 18:35 S 11 16.09 Fair CLR 23 16.3 66% 75.84 0.0
06 18:15 S 17 16.09 Fair CLR 23 16.3 66% 75.84 0.0
06 17:55 S 19 16.09 Fair CLR 23.1 16.3 66% 75.87 0.0
06 17:35 S 17 G 26 16.09 Fair CLR 23 16.1 65% 75.84 0.0
06 17:15 S 15 G 28 16.09 Partly Cloudy SCT120 22.6 15.9 66% 75.84 0.0
06 16:55 S 9 16.09 Mostly Cloudy BKN120 22.5 15.8 66% 75.84 0.0 0.03
06 16:35 S 19 G 28 16.09 Fair CLR 22.5 15.6 65% 75.79 0.0
06 16:15 SE 15 G 31 16.09 Partly Cloudy SCT110 22.4 16.1 68% 75.79 0.0
06 15:55 S 9 16.09 Mostly Cloudy BKN110 21.6 17.3 77% 75.87 0.0 0.03
06 15:35 S 7 16.09 Mostly Cloudy SCT060 SCT080 BKN120 20.7 17.5 82% 75.92 0.0 0.03
06 15:15 S 9 16.09 Light Rain SCT032 SCT060 OVC100 20 16.9 82% 75.97 0.0 0.03
06 14:55 S 24 G 44 11.27 Light Rain SCT060 SCT070 OVC100 21.2 15.8 71% 76 0.0
06 14:35 S 24 G 35 16.09 Overcast SCT070 SCT085 OVC110 24.6 14.1 52% 26 76 0.0
06 14:15 S 24 G 35 16.09 Mostly Cloudy SCT090 BKN110 24 13.9 53% 25 76 0.0
06 13:55 S 17 G 31 16.09 Partly Cloudy SCT090 SCT110 23.7 13.9 23.7 17.4 54% 76 0.0
06 13:35 S 17 G 28 16.09 Overcast SCT033 SCT050 OVC110 22.5 13.8 58% 76.02 0.0
06 13:15 S 15 16.09 Overcast SCT035 BKN065 OVC110 22.5 13.9 58% 76.02 0.0
06 12:55 S 19 G 31 16.09 Overcast SCT043 BKN100 OVC120 22.2 13.2 57% 76.07 0.0
06 12:35 S 15 G 30 16.09 Overcast SCT060 BKN075 OVC090 22 13 57% 76.1 0.0
06 12:15 S 11 16.09 Overcast BKN060 BKN075 OVC085 21.1 12.8 59% 76.1 0.0
06 11:55 S 15 16.09 Overcast SCT047 SCT060 OVC100 21 12.7 59% 76.1 0.0
06 11:35 S 17 G 28 16.09 Mostly Cloudy SCT075 BKN095 BKN120 21.3 12.5 57% 76.1 0.0
06 11:15 S 19 G 28 16.09 Mostly Cloudy BKN095 BKN120 21 12.6 59% 76.1 0.0
06 10:55 SE 17 G 26 16.09 Mostly Cloudy SCT085 BKN120 20.5 12.9 62% 76.1 0.0
06 10:35 S 13 G 26 16.09 Overcast SCT060 SCT085 OVC120 20 12.8 63% 76.12 0.0
Date Time (edt) Wind (kph) Vis. (km) Weather Sky Cond. Air Dwpt Max. Min. Relative Humidity Wind Chill (°C) Heat Index (°C) altimeter (cm) sea level (mb) 1 hr 3 hr 6 hr
6 hour
Temperature (ºC) Pressure Precipitation (cm)